sensor_id;sensor_type;location;lat;lon;timestamp;P1;durP1;ratioP1;P2;durP2;ratioP2
31061;SDS011;17724;53.546;9.974;2023-02-19T00:01:45;13.80;;;6.40;;
31061;SDS011;17724;53.546;9.974;2023-02-19T00:05:46;13.53;;;5.63;;
31061;SDS011;17724;53.546;9.974;2023-02-19T00:09:47;13.97;;;5.53;;
31061;SDS011;17724;53.546;9.974;2023-02-19T00:13:48;13.47;;;4.70;;
31061;SDS011;17724;53.546;9.974;2023-02-19T00:17:50;13.97;;;4.87;;
31061;SDS011;17724;53.546;9.974;2023-02-19T00:21:51;13.07;;;4.30;;
31061;SDS011;17724;53.546;9.974;2023-02-19T00:25:53;12.70;;;3.97;;
31061;SDS011;17724;53.546;9.974;2023-02-19T00:29:53;11.27;;;3.87;;
31061;SDS011;17724;53.546;9.974;2023-02-19T00:33:55;12.53;;;4.47;;
31061;SDS011;17724;53.546;9.974;2023-02-19T00:37:57;11.73;;;4.03;;
31061;SDS011;17724;53.546;9.974;2023-02-19T00:41:57;10.80;;;4.00;;
31061;SDS011;17724;53.546;9.974;2023-02-19T00:46:00;13.63;;;4.53;;
31061;SDS011;17724;53.546;9.974;2023-02-19T00:50:00;12.97;;;4.50;;
31061;SDS011;17724;53.546;9.974;2023-02-19T00:54:01;13.10;;;4.43;;
31061;SDS011;17724;53.546;9.974;2023-02-19T00:58:02;11.67;;;5.13;;
31061;SDS011;17724;53.546;9.974;2023-02-19T01:02:02;12.20;;;5.93;;
31061;SDS011;17724;53.546;9.974;2023-02-19T01:06:03;12.63;;;6.70;;
31061;SDS011;17724;53.546;9.974;2023-02-19T01:10:05;13.20;;;6.63;;
31061;SDS011;17724;53.546;9.974;2023-02-19T01:14:06;14.87;;;7.53;;
31061;SDS011;17724;53.546;9.974;2023-02-19T01:18:09;15.30;;;8.00;;
31061;SDS011;17724;53.546;9.974;2023-02-19T01:22:09;14.97;;;8.37;;
31061;SDS011;17724;53.546;9.974;2023-02-19T01:26:11;14.97;;;7.90;;
31061;SDS011;17724;53.546;9.974;2023-02-19T01:30:13;16.83;;;9.13;;
31061;SDS011;17724;53.546;9.974;2023-02-19T01:34:14;15.80;;;8.23;;
31061;SDS011;17724;53.546;9.974;2023-02-19T01:38:15;14.10;;;7.87;;
31061;SDS011;17724;53.546;9.974;2023-02-19T01:42:16;14.97;;;8.30;;
31061;SDS011;17724;53.546;9.974;2023-02-19T01:46:16;16.90;;;9.90;;
31061;SDS011;17724;53.546;9.974;2023-02-19T01:50:17;17.83;;;10.63;;
31061;SDS011;17724;53.546;9.974;2023-02-19T01:54:18;14.60;;;6.60;;
31061;SDS011;17724;53.546;9.974;2023-02-19T01:58:22;11.77;;;4.40;;
31061;SDS011;17724;53.546;9.974;2023-02-19T02:02:25;11.57;;;3.80;;
31061;SDS011;17724;53.546;9.974;2023-02-19T02:06:32;12.30;;;3.33;;
31061;SDS011;17724;53.546;9.974;2023-02-19T02:10:37;10.67;;;3.03;;
31061;SDS011;17724;53.546;9.974;2023-02-19T02:14:39;9.97;;;2.90;;
31061;SDS011;17724;53.546;9.974;2023-02-19T02:18:53;12.20;;;3.80;;
31061;SDS011;17724;53.546;9.974;2023-02-19T02:27:54;10.30;;;3.53;;
31061;SDS011;17724;53.546;9.974;2023-02-19T02:32:08;12.30;;;3.60;;
31061;SDS011;17724;53.546;9.974;2023-02-19T02:36:21;11.00;;;3.30;;
31061;SDS011;17724;53.546;9.974;2023-02-19T02:40:26;11.43;;;3.47;;
31061;SDS011;17724;53.546;9.974;2023-02-19T02:44:32;10.97;;;3.40;;
31061;SDS011;17724;53.546;9.974;2023-02-19T02:48:35;12.90;;;3.40;;
31061;SDS011;17724;53.546;9.974;2023-02-19T02:52:58;10.40;;;2.60;;
31061;SDS011;17724;53.546;9.974;2023-02-19T02:57:23;12.17;;;2.37;;
31061;SDS011;17724;53.546;9.974;2023-02-19T03:01:36;10.30;;;2.90;;
31061;SDS011;17724;53.546;9.974;2023-02-19T03:06:09;12.40;;;2.87;;
31061;SDS011;17724;53.546;9.974;2023-02-19T03:10:16;12.13;;;2.27;;
31061;SDS011;17724;53.546;9.974;2023-02-19T03:14:20;10.77;;;2.97;;
31061;SDS011;17724;53.546;9.974;2023-02-19T03:18:43;13.57;;;2.70;;
31061;SDS011;17724;53.546;9.974;2023-02-19T03:23:06;9.67;;;2.50;;
31061;SDS011;17724;53.546;9.974;2023-02-19T03:27:08;10.63;;;2.27;;
31061;SDS011;17724;53.546;9.974;2023-02-19T03:31:17;14.20;;;2.33;;
31061;SDS011;17724;53.546;9.974;2023-02-19T03:35:21;10.07;;;2.60;;
31061;SDS011;17724;53.546;9.974;2023-02-19T03:39:29;11.00;;;2.80;;
31061;SDS011;17724;53.546;9.974;2023-02-19T03:43:44;12.13;;;3.03;;
31061;SDS011;17724;53.546;9.974;2023-02-19T03:52:13;14.97;;;2.40;;
31061;SDS011;17724;53.546;9.974;2023-02-19T03:56:44;11.03;;;2.60;;
31061;SDS011;17724;53.546;9.974;2023-02-19T04:00:54;11.10;;;2.50;;
31061;SDS011;17724;53.546;9.974;2023-02-19T04:05:10;11.10;;;2.07;;
31061;SDS011;17724;53.546;9.974;2023-02-19T04:09:18;9.97;;;2.67;;
31061;SDS011;17724;53.546;9.974;2023-02-19T04:13:29;13.43;;;2.80;;
31061;SDS011;17724;53.546;9.974;2023-02-19T04:17:34;10.63;;;2.60;;
31061;SDS011;17724;53.546;9.974;2023-02-19T04:21:56;12.87;;;2.50;;
31061;SDS011;17724;53.546;9.974;2023-02-19T04:25:58;11.53;;;1.93;;
31061;SDS011;17724;53.546;9.974;2023-02-19T04:30:00;11.03;;;2.20;;
31061;SDS011;17724;53.546;9.974;2023-02-19T04:34:01;15.77;;;3.07;;
31061;SDS011;17724;53.546;9.974;2023-02-19T04:38:02;10.47;;;2.57;;
31061;SDS011;17724;53.546;9.974;2023-02-19T04:42:03;13.27;;;2.80;;
31061;SDS011;17724;53.546;9.974;2023-02-19T04:46:04;13.50;;;2.43;;
31061;SDS011;17724;53.546;9.974;2023-02-19T04:50:04;10.53;;;2.73;;
31061;SDS011;17724;53.546;9.974;2023-02-19T04:54:05;10.17;;;2.43;;
31061;SDS011;17724;53.546;9.974;2023-02-19T04:58:06;10.57;;;2.70;;
31061;SDS011;17724;53.546;9.974;2023-02-19T05:02:06;12.33;;;2.83;;
31061;SDS011;17724;53.546;9.974;2023-02-19T05:06:08;12.77;;;2.20;;
31061;SDS011;17724;53.546;9.974;2023-02-19T05:10:10;10.60;;;2.47;;
31061;SDS011;17724;53.546;9.974;2023-02-19T05:14:10;13.17;;;3.20;;
31061;SDS011;17724;53.546;9.974;2023-02-19T05:18:11;15.93;;;3.20;;
31061;SDS011;17724;53.546;9.974;2023-02-19T05:22:11;10.70;;;2.50;;
31061;SDS011;17724;53.546;9.974;2023-02-19T05:26:13;11.43;;;2.90;;
31061;SDS011;17724;53.546;9.974;2023-02-19T05:30:17;10.60;;;2.33;;
31061;SDS011;17724;53.546;9.974;2023-02-19T05:34:17;14.10;;;2.03;;
31061;SDS011;17724;53.546;9.974;2023-02-19T05:38:18;12.40;;;3.10;;
31061;SDS011;17724;53.546;9.974;2023-02-19T05:42:19;12.57;;;3.33;;
31061;SDS011;17724;53.546;9.974;2023-02-19T05:46:20;12.40;;;4.27;;
31061;SDS011;17724;53.546;9.974;2023-02-19T05:50:22;13.20;;;2.90;;
31061;SDS011;17724;53.546;9.974;2023-02-19T05:54:23;10.70;;;2.67;;
31061;SDS011;17724;53.546;9.974;2023-02-19T05:58:24;10.93;;;2.30;;
31061;SDS011;17724;53.546;9.974;2023-02-19T06:02:25;11.40;;;2.30;;
31061;SDS011;17724;53.546;9.974;2023-02-19T06:06:25;11.67;;;2.27;;
31061;SDS011;17724;53.546;9.974;2023-02-19T06:10:26;9.83;;;2.33;;
31061;SDS011;17724;53.546;9.974;2023-02-19T06:14:27;9.93;;;2.03;;
31061;SDS011;17724;53.546;9.974;2023-02-19T06:18:27;14.23;;;2.63;;
31061;SDS011;17724;53.546;9.974;2023-02-19T06:22:28;9.80;;;2.03;;
31061;SDS011;17724;53.546;9.974;2023-02-19T06:26:28;11.90;;;1.90;;
31061;SDS011;17724;53.546;9.974;2023-02-19T06:30:29;14.43;;;2.50;;
31061;SDS011;17724;53.546;9.974;2023-02-19T06:34:30;13.53;;;4.23;;
31061;SDS011;17724;53.546;9.974;2023-02-19T06:38:31;14.03;;;2.93;;
31061;SDS011;17724;53.546;9.974;2023-02-19T06:42:31;12.43;;;2.90;;
31061;SDS011;17724;53.546;9.974;2023-02-19T06:46:32;11.87;;;2.50;;
31061;SDS011;17724;53.546;9.974;2023-02-19T06:50:33;11.30;;;2.17;;
31061;SDS011;17724;53.546;9.974;2023-02-19T06:54:33;10.47;;;1.97;;
31061;SDS011;17724;53.546;9.974;2023-02-19T06:58:34;10.93;;;2.40;;
31061;SDS011;17724;53.546;9.974;2023-02-19T07:02:34;11.53;;;2.60;;
31061;SDS011;17724;53.546;9.974;2023-02-19T07:06:35;11.77;;;2.90;;
31061;SDS011;17724;53.546;9.974;2023-02-19T07:10:36;13.03;;;3.33;;
31061;SDS011;17724;53.546;9.974;2023-02-19T07:14:37;12.73;;;3.10;;
31061;SDS011;17724;53.546;9.974;2023-02-19T07:18:38;11.33;;;3.80;;
31061;SDS011;17724;53.546;9.974;2023-02-19T07:22:39;12.57;;;3.17;;
31061;SDS011;17724;53.546;9.974;2023-02-19T07:26:39;16.77;;;4.37;;
31061;SDS011;17724;53.546;9.974;2023-02-19T07:30:40;11.50;;;3.17;;
31061;SDS011;17724;53.546;9.974;2023-02-19T07:34:40;13.97;;;3.63;;
31061;SDS011;17724;53.546;9.974;2023-02-19T07:38:41;11.57;;;3.57;;
31061;SDS011;17724;53.546;9.974;2023-02-19T07:42:41;9.83;;;3.10;;
31061;SDS011;17724;53.546;9.974;2023-02-19T07:46:42;11.00;;;3.00;;
31061;SDS011;17724;53.546;9.974;2023-02-19T07:50:53;10.33;;;3.13;;
31061;SDS011;17724;53.546;9.974;2023-02-19T07:54:55;11.73;;;3.50;;
31061;SDS011;17724;53.546;9.974;2023-02-19T07:58:55;13.80;;;2.87;;
31061;SDS011;17724;53.546;9.974;2023-02-19T08:02:56;13.17;;;2.60;;
31061;SDS011;17724;53.546;9.974;2023-02-19T08:06:59;11.60;;;3.00;;
31061;SDS011;17724;53.546;9.974;2023-02-19T08:11:01;11.33;;;2.53;;
31061;SDS011;17724;53.546;9.974;2023-02-19T08:15:21;11.97;;;2.90;;
31061;SDS011;17724;53.546;9.974;2023-02-19T08:19:22;9.63;;;2.07;;
31061;SDS011;17724;53.546;9.974;2023-02-19T08:23:22;10.73;;;3.40;;
31061;SDS011;17724;53.546;9.974;2023-02-19T08:27:23;11.30;;;2.10;;
31061;SDS011;17724;53.546;9.974;2023-02-19T08:31:24;10.90;;;2.03;;
31061;SDS011;17724;53.546;9.974;2023-02-19T08:35:25;13.70;;;2.67;;
31061;SDS011;17724;53.546;9.974;2023-02-19T08:39:25;12.20;;;3.10;;
31061;SDS011;17724;53.546;9.974;2023-02-19T08:43:26;11.87;;;3.27;;
31061;SDS011;17724;53.546;9.974;2023-02-19T08:47:26;9.30;;;1.80;;
31061;SDS011;17724;53.546;9.974;2023-02-19T08:51:27;11.63;;;2.23;;
31061;SDS011;17724;53.546;9.974;2023-02-19T08:55:28;13.30;;;2.37;;
31061;SDS011;17724;53.546;9.974;2023-02-19T08:59:31;11.10;;;2.23;;
31061;SDS011;17724;53.546;9.974;2023-02-19T09:03:32;10.73;;;2.63;;
31061;SDS011;17724;53.546;9.974;2023-02-19T09:07:32;11.27;;;2.83;;
31061;SDS011;17724;53.546;9.974;2023-02-19T09:11:33;9.73;;;2.00;;
31061;SDS011;17724;53.546;9.974;2023-02-19T09:15:34;12.13;;;1.90;;
31061;SDS011;17724;53.546;9.974;2023-02-19T09:19:36;11.13;;;1.60;;
31061;SDS011;17724;53.546;9.974;2023-02-19T09:23:37;10.67;;;1.40;;
31061;SDS011;17724;53.546;9.974;2023-02-19T09:27:37;9.97;;;1.40;;
31061;SDS011;17724;53.546;9.974;2023-02-19T09:31:38;11.37;;;1.30;;
31061;SDS011;17724;53.546;9.974;2023-02-19T09:35:38;11.10;;;1.50;;
31061;SDS011;17724;53.546;9.974;2023-02-19T09:39:39;8.70;;;1.20;;
31061;SDS011;17724;53.546;9.974;2023-02-19T09:43:40;10.30;;;1.43;;
31061;SDS011;17724;53.546;9.974;2023-02-19T09:47:41;11.43;;;1.70;;
31061;SDS011;17724;53.546;9.974;2023-02-19T09:51:47;9.63;;;1.30;;
31061;SDS011;17724;53.546;9.974;2023-02-19T09:56:09;13.77;;;1.30;;
31061;SDS011;17724;53.546;9.974;2023-02-19T10:04:10;10.30;;;1.47;;
31061;SDS011;17724;53.546;9.974;2023-02-19T10:08:12;9.97;;;1.83;;
31061;SDS011;17724;53.546;9.974;2023-02-19T10:12:18;10.73;;;1.50;;
31061;SDS011;17724;53.546;9.974;2023-02-19T10:16:25;10.30;;;1.53;;
31061;SDS011;17724;53.546;9.974;2023-02-19T10:20:27;9.67;;;1.00;;
31061;SDS011;17724;53.546;9.974;2023-02-19T10:24:28;11.10;;;1.30;;
31061;SDS011;17724;53.546;9.974;2023-02-19T10:28:30;9.93;;;1.40;;
31061;SDS011;17724;53.546;9.974;2023-02-19T10:32:33;10.03;;;1.33;;
31061;SDS011;17724;53.546;9.974;2023-02-19T10:36:35;11.40;;;1.53;;
31061;SDS011;17724;53.546;9.974;2023-02-19T10:40:38;8.70;;;1.00;;
31061;SDS011;17724;53.546;9.974;2023-02-19T10:44:45;8.77;;;1.20;;
31061;SDS011;17724;53.546;9.974;2023-02-19T10:48:51;11.20;;;1.40;;
31061;SDS011;17724;53.546;9.974;2023-02-19T10:52:54;9.83;;;1.60;;
31061;SDS011;17724;53.546;9.974;2023-02-19T11:01:32;14.30;;;1.80;;
31061;SDS011;17724;53.546;9.974;2023-02-19T11:05:32;8.53;;;1.20;;
31061;SDS011;17724;53.546;9.974;2023-02-19T11:09:37;14.30;;;1.90;;
31061;SDS011;17724;53.546;9.974;2023-02-19T11:13:40;9.30;;;1.50;;
31061;SDS011;17724;53.546;9.974;2023-02-19T11:17:41;10.03;;;1.00;;
31061;SDS011;17724;53.546;9.974;2023-02-19T11:21:42;10.90;;;1.70;;
31061;SDS011;17724;53.546;9.974;2023-02-19T11:25:45;11.27;;;1.27;;
31061;SDS011;17724;53.546;9.974;2023-02-19T11:29:48;10.60;;;1.47;;
31061;SDS011;17724;53.546;9.974;2023-02-19T11:34:02;10.90;;;1.70;;
31061;SDS011;17724;53.546;9.974;2023-02-19T11:38:28;10.40;;;1.50;;
31061;SDS011;17724;53.546;9.974;2023-02-19T11:42:38;10.70;;;1.30;;
31061;SDS011;17724;53.546;9.974;2023-02-19T11:51:19;10.23;;;1.90;;
31061;SDS011;17724;53.546;9.974;2023-02-19T11:59:36;10.37;;;1.47;;
31061;SDS011;17724;53.546;9.974;2023-02-19T12:34:46;10.17;;;1.43;;
31061;SDS011;17724;53.546;9.974;2023-02-19T12:39:18;11.27;;;1.40;;
31061;SDS011;17724;53.546;9.974;2023-02-19T12:43:23;12.90;;;1.40;;
31061;SDS011;17724;53.546;9.974;2023-02-19T12:47:26;15.20;;;1.30;;
31061;SDS011;17724;53.546;9.974;2023-02-19T12:55:35;10.47;;;1.33;;
31061;SDS011;17724;53.546;9.974;2023-02-19T12:59:42;9.20;;;1.10;;
31061;SDS011;17724;53.546;9.974;2023-02-19T13:03:50;10.47;;;1.40;;
31061;SDS011;17724;53.546;9.974;2023-02-19T13:08:15;11.03;;;1.20;;
31061;SDS011;17724;53.546;9.974;2023-02-19T13:12:34;8.93;;;1.23;;
31061;SDS011;17724;53.546;9.974;2023-02-19T13:16:39;10.40;;;1.50;;
31061;SDS011;17724;53.546;9.974;2023-02-19T13:20:43;11.27;;;1.70;;
31061;SDS011;17724;53.546;9.974;2023-02-19T13:24:48;10.20;;;1.53;;
31061;SDS011;17724;53.546;9.974;2023-02-19T13:37:43;11.27;;;1.87;;
31061;SDS011;17724;53.546;9.974;2023-02-19T13:41:51;10.77;;;2.03;;
31061;SDS011;17724;53.546;9.974;2023-02-19T13:45:57;9.50;;;1.60;;
31061;SDS011;17724;53.546;9.974;2023-02-19T13:50:04;12.40;;;1.50;;
31061;SDS011;17724;53.546;9.974;2023-02-19T13:54:13;9.97;;;1.70;;
31061;SDS011;17724;53.546;9.974;2023-02-19T14:02:34;23.30;;;10.47;;
31061;SDS011;17724;53.546;9.974;2023-02-19T14:11:03;21.40;;;3.93;;
31061;SDS011;17724;53.546;9.974;2023-02-19T14:23:42;33.23;;;19.17;;
31061;SDS011;17724;53.546;9.974;2023-02-19T14:27:44;22.40;;;12.97;;
31061;SDS011;17724;53.546;9.974;2023-02-19T14:31:45;33.53;;;17.73;;
31061;SDS011;17724;53.546;9.974;2023-02-19T14:35:46;28.50;;;14.30;;
31061;SDS011;17724;53.546;9.974;2023-02-19T14:39:51;69.13;;;37.67;;
31061;SDS011;17724;53.546;9.974;2023-02-19T14:43:54;26.37;;;14.23;;
31061;SDS011;17724;53.546;9.974;2023-02-19T14:47:56;52.07;;;27.23;;
31061;SDS011;17724;53.546;9.974;2023-02-19T14:51:58;57.87;;;35.33;;
31061;SDS011;17724;53.546;9.974;2023-02-19T14:56:06;16.67;;;5.50;;
31061;SDS011;17724;53.546;9.974;2023-02-19T15:04:22;21.47;;;8.60;;
31061;SDS011;17724;53.546;9.974;2023-02-19T15:08:30;25.93;;;11.90;;
31061;SDS011;17724;53.546;9.974;2023-02-19T15:16:40;18.90;;;7.43;;
31061;SDS011;17724;53.546;9.974;2023-02-19T15:20:41;46.80;;;29.23;;
31061;SDS011;17724;53.546;9.974;2023-02-19T15:24:44;33.50;;;23.40;;
31061;SDS011;17724;53.546;9.974;2023-02-19T15:28:45;18.73;;;9.23;;
31061;SDS011;17724;53.546;9.974;2023-02-19T15:32:55;21.20;;;9.10;;
31061;SDS011;17724;53.546;9.974;2023-02-19T15:36:58;18.17;;;6.10;;
31061;SDS011;17724;53.546;9.974;2023-02-19T15:41:01;22.73;;;9.77;;
31061;SDS011;17724;53.546;9.974;2023-02-19T15:45:06;14.23;;;4.03;;
31061;SDS011;17724;53.546;9.974;2023-02-19T15:49:21;60.07;;;41.43;;
31061;SDS011;17724;53.546;9.974;2023-02-19T15:53:30;53.50;;;34.90;;
31061;SDS011;17724;53.546;9.974;2023-02-19T15:57:36;59.93;;;40.77;;
31061;SDS011;17724;53.546;9.974;2023-02-19T16:01:42;72.30;;;47.63;;
31061;SDS011;17724;53.546;9.974;2023-02-19T16:05:43;36.00;;;20.90;;
31061;SDS011;17724;53.546;9.974;2023-02-19T16:09:44;28.03;;;12.50;;
31061;SDS011;17724;53.546;9.974;2023-02-19T16:13:45;23.33;;;9.50;;
31061;SDS011;17724;53.546;9.974;2023-02-19T16:17:45;32.43;;;16.90;;
31061;SDS011;17724;53.546;9.974;2023-02-19T16:21:46;26.63;;;14.13;;
31061;SDS011;17724;53.546;9.974;2023-02-19T16:25:47;23.40;;;10.40;;
31061;SDS011;17724;53.546;9.974;2023-02-19T16:29:49;26.47;;;11.90;;
31061;SDS011;17724;53.546;9.974;2023-02-19T16:33:50;57.03;;;36.10;;
31061;SDS011;17724;53.546;9.974;2023-02-19T16:37:57;30.87;;;16.20;;
31061;SDS011;17724;53.546;9.974;2023-02-19T16:45:59;29.07;;;15.60;;
31061;SDS011;17724;53.546;9.974;2023-02-19T16:50:01;45.30;;;25.40;;
31061;SDS011;17724;53.546;9.974;2023-02-19T16:54:07;44.00;;;29.90;;
31061;SDS011;17724;53.546;9.974;2023-02-19T16:58:08;57.97;;;38.00;;
31061;SDS011;17724;53.546;9.974;2023-02-19T17:02:10;23.73;;;12.07;;
31061;SDS011;17724;53.546;9.974;2023-02-19T17:06:16;90.73;;;75.17;;
31061;SDS011;17724;53.546;9.974;2023-02-19T17:10:23;42.47;;;25.20;;
31061;SDS011;17724;53.546;9.974;2023-02-19T17:14:25;35.90;;;19.67;;
31061;SDS011;17724;53.546;9.974;2023-02-19T17:18:25;42.33;;;29.33;;
31061;SDS011;17724;53.546;9.974;2023-02-19T17:22:26;23.20;;;9.80;;
31061;SDS011;17724;53.546;9.974;2023-02-19T17:26:27;43.27;;;27.70;;
31061;SDS011;17724;53.546;9.974;2023-02-19T17:30:30;90.60;;;63.77;;
31061;SDS011;17724;53.546;9.974;2023-02-19T17:34:31;71.43;;;46.10;;
31061;SDS011;17724;53.546;9.974;2023-02-19T17:38:32;21.70;;;10.90;;
31061;SDS011;17724;53.546;9.974;2023-02-19T17:42:32;21.63;;;8.53;;
31061;SDS011;17724;53.546;9.974;2023-02-19T17:46:33;10.80;;;2.20;;
31061;SDS011;17724;53.546;9.974;2023-02-19T17:50:33;56.43;;;29.30;;
31061;SDS011;17724;53.546;9.974;2023-02-19T17:54:34;49.63;;;35.47;;
31061;SDS011;17724;53.546;9.974;2023-02-19T17:58:34;39.43;;;26.20;;
31061;SDS011;17724;53.546;9.974;2023-02-19T18:02:35;38.37;;;25.30;;
31061;SDS011;17724;53.546;9.974;2023-02-19T18:06:35;38.47;;;25.83;;
31061;SDS011;17724;53.546;9.974;2023-02-19T18:10:39;56.60;;;31.90;;
31061;SDS011;17724;53.546;9.974;2023-02-19T18:14:39;55.27;;;34.07;;
31061;SDS011;17724;53.546;9.974;2023-02-19T18:18:40;27.10;;;14.90;;
31061;SDS011;17724;53.546;9.974;2023-02-19T18:22:42;41.77;;;25.33;;
31061;SDS011;17724;53.546;9.974;2023-02-19T18:26:42;12.33;;;3.97;;
31061;SDS011;17724;53.546;9.974;2023-02-19T18:30:43;15.30;;;4.10;;
31061;SDS011;17724;53.546;9.974;2023-02-19T18:34:47;23.80;;;14.10;;
31061;SDS011;17724;53.546;9.974;2023-02-19T18:38:49;15.43;;;4.47;;
31061;SDS011;17724;53.546;9.974;2023-02-19T18:42:49;10.40;;;2.40;;
31061;SDS011;17724;53.546;9.974;2023-02-19T18:46:50;16.20;;;6.97;;
31061;SDS011;17724;53.546;9.974;2023-02-19T18:50:51;55.93;;;33.00;;
31061;SDS011;17724;53.546;9.974;2023-02-19T18:54:52;15.17;;;5.50;;
31061;SDS011;17724;53.546;9.974;2023-02-19T18:58:54;63.57;;;42.57;;
31061;SDS011;17724;53.546;9.974;2023-02-19T19:02:55;24.57;;;10.30;;
31061;SDS011;17724;53.546;9.974;2023-02-19T19:06:57;27.90;;;17.07;;
31061;SDS011;17724;53.546;9.974;2023-02-19T19:10:57;38.60;;;21.50;;
31061;SDS011;17724;53.546;9.974;2023-02-19T19:14:58;49.33;;;28.30;;
31061;SDS011;17724;53.546;9.974;2023-02-19T19:18:58;18.40;;;8.33;;
31061;SDS011;17724;53.546;9.974;2023-02-19T19:22:59;18.20;;;7.67;;
31061;SDS011;17724;53.546;9.974;2023-02-19T19:26:59;20.10;;;6.70;;
31061;SDS011;17724;53.546;9.974;2023-02-19T19:31:00;22.97;;;9.47;;
31061;SDS011;17724;53.546;9.974;2023-02-19T19:35:01;26.73;;;12.23;;
31061;SDS011;17724;53.546;9.974;2023-02-19T19:39:01;51.87;;;31.50;;
31061;SDS011;17724;53.546;9.974;2023-02-19T19:43:03;19.27;;;6.00;;
31061;SDS011;17724;53.546;9.974;2023-02-19T19:47:03;32.90;;;15.23;;
31061;SDS011;17724;53.546;9.974;2023-02-19T19:51:04;18.80;;;6.53;;
31061;SDS011;17724;53.546;9.974;2023-02-19T19:55:05;17.50;;;6.40;;
31061;SDS011;17724;53.546;9.974;2023-02-19T19:59:07;21.20;;;4.90;;
31061;SDS011;17724;53.546;9.974;2023-02-19T20:03:12;21.47;;;8.43;;
31061;SDS011;17724;53.546;9.974;2023-02-19T20:07:13;16.30;;;5.63;;
31061;SDS011;17724;53.546;9.974;2023-02-19T20:11:13;18.40;;;5.80;;
31061;SDS011;17724;53.546;9.974;2023-02-19T20:15:18;23.67;;;8.40;;
31061;SDS011;17724;53.546;9.974;2023-02-19T20:19:20;23.67;;;10.20;;
31061;SDS011;17724;53.546;9.974;2023-02-19T20:23:21;12.30;;;2.97;;
31061;SDS011;17724;53.546;9.974;2023-02-19T20:27:21;13.70;;;5.20;;
31061;SDS011;17724;53.546;9.974;2023-02-19T20:31:23;14.53;;;6.50;;
31061;SDS011;17724;53.546;9.974;2023-02-19T20:35:24;18.90;;;6.43;;
31061;SDS011;17724;53.546;9.974;2023-02-19T20:39:27;21.23;;;7.10;;
31061;SDS011;17724;53.546;9.974;2023-02-19T20:43:28;18.40;;;5.60;;
31061;SDS011;17724;53.546;9.974;2023-02-19T20:47:29;37.07;;;19.73;;
31061;SDS011;17724;53.546;9.974;2023-02-19T20:51:40;16.13;;;5.87;;
31061;SDS011;17724;53.546;9.974;2023-02-19T20:55:44;22.47;;;9.73;;
31061;SDS011;17724;53.546;9.974;2023-02-19T20:59:45;15.23;;;5.30;;
31061;SDS011;17724;53.546;9.974;2023-02-19T21:03:45;9.77;;;2.23;;
31061;SDS011;17724;53.546;9.974;2023-02-19T21:07:46;14.37;;;4.23;;
31061;SDS011;17724;53.546;9.974;2023-02-19T21:11:46;12.83;;;3.40;;
31061;SDS011;17724;53.546;9.974;2023-02-19T21:15:47;11.30;;;2.93;;
31061;SDS011;17724;53.546;9.974;2023-02-19T21:19:48;10.17;;;2.60;;
31061;SDS011;17724;53.546;9.974;2023-02-19T21:23:48;13.20;;;3.63;;
31061;SDS011;17724;53.546;9.974;2023-02-19T21:27:49;21.23;;;10.10;;
31061;SDS011;17724;53.546;9.974;2023-02-19T21:31:53;51.90;;;29.53;;
31061;SDS011;17724;53.546;9.974;2023-02-19T21:35:55;19.67;;;6.50;;
31061;SDS011;17724;53.546;9.974;2023-02-19T21:39:56;24.73;;;10.00;;
31061;SDS011;17724;53.546;9.974;2023-02-19T21:43:59;24.17;;;11.43;;
31061;SDS011;17724;53.546;9.974;2023-02-19T21:48:00;14.00;;;5.40;;
31061;SDS011;17724;53.546;9.974;2023-02-19T21:52:00;11.50;;;2.80;;
31061;SDS011;17724;53.546;9.974;2023-02-19T21:56:01;13.80;;;2.40;;
31061;SDS011;17724;53.546;9.974;2023-02-19T22:00:01;9.13;;;1.77;;
31061;SDS011;17724;53.546;9.974;2023-02-19T22:04:05;13.33;;;2.40;;
31061;SDS011;17724;53.546;9.974;2023-02-19T22:08:07;13.57;;;2.70;;
31061;SDS011;17724;53.546;9.974;2023-02-19T22:12:07;9.93;;;2.07;;
31061;SDS011;17724;53.546;9.974;2023-02-19T22:16:07;8.73;;;1.80;;
31061;SDS011;17724;53.546;9.974;2023-02-19T22:20:08;13.90;;;3.93;;
31061;SDS011;17724;53.546;9.974;2023-02-19T22:24:12;12.17;;;2.30;;
31061;SDS011;17724;53.546;9.974;2023-02-19T22:28:15;9.80;;;2.50;;
31061;SDS011;17724;53.546;9.974;2023-02-19T22:32:16;13.07;;;2.70;;
31061;SDS011;17724;53.546;9.974;2023-02-19T22:36:20;9.00;;;1.70;;
31061;SDS011;17724;53.546;9.974;2023-02-19T22:40:23;10.57;;;2.10;;
31061;SDS011;17724;53.546;9.974;2023-02-19T22:44:23;12.27;;;2.97;;
31061;SDS011;17724;53.546;9.974;2023-02-19T22:48:23;9.60;;;2.00;;
31061;SDS011;17724;53.546;9.974;2023-02-19T22:52:24;10.30;;;1.80;;
31061;SDS011;17724;53.546;9.974;2023-02-19T22:56:27;13.80;;;2.80;;
31061;SDS011;17724;53.546;9.974;2023-02-19T23:00:28;15.20;;;2.30;;
31061;SDS011;17724;53.546;9.974;2023-02-19T23:04:28;10.33;;;1.87;;
31061;SDS011;17724;53.546;9.974;2023-02-19T23:08:29;10.30;;;2.80;;
31061;SDS011;17724;53.546;9.974;2023-02-19T23:12:29;10.80;;;1.83;;
31061;SDS011;17724;53.546;9.974;2023-02-19T23:16:30;12.87;;;2.30;;
31061;SDS011;17724;53.546;9.974;2023-02-19T23:20:34;10.63;;;2.57;;
31061;SDS011;17724;53.546;9.974;2023-02-19T23:24:35;8.57;;;1.97;;
31061;SDS011;17724;53.546;9.974;2023-02-19T23:28:35;13.43;;;2.07;;
31061;SDS011;17724;53.546;9.974;2023-02-19T23:32:37;15.07;;;6.00;;
31061;SDS011;17724;53.546;9.974;2023-02-19T23:36:39;10.00;;;1.90;;
31061;SDS011;17724;53.546;9.974;2023-02-19T23:40:43;10.07;;;1.83;;
31061;SDS011;17724;53.546;9.974;2023-02-19T23:44:45;10.20;;;2.20;;
31061;SDS011;17724;53.546;9.974;2023-02-19T23:48:46;10.90;;;2.30;;
31061;SDS011;17724;53.546;9.974;2023-02-19T23:52:46;11.63;;;2.17;;
31061;SDS011;17724;53.546;9.974;2023-02-19T23:56:47;12.20;;;3.50;;
